Aviation Digital Data Service (ADDS)

Output produced by METARs form (1958 UTC 25 July 2014)
found at http://aviationweather.gov/adds/metars/
 
KGFL 251734Z 2518/2618 16007KT P6SM FEW040 
     FM260000 00000KT P6SM SKC 
     FM260800 00000KT 2SM BR BKN008 
     FM261300 18006KT P6SM FEW040